Time;durP1;ratioP1;P1;durP2;ratioP2;P2;SDS_P1;SDS_P2;PMS_P1;PMS_P2;Temp;Humidity;BMP_temperature;BMP_pressure;BME280_temperature;BME280_humidity;BME280_pressure;Samples;Min_cycle;Max_cycle;Signal;HPM_P1;HPM_P2
2022/10/13 00:00:43;;;;;;;12.10;9.67;;;;;;;;;;5035153;28;20530;-78
2022/10/13 00:03:09;;;;;;;10.67;9.17;;;;;;;;;;5031630;28;20845;-77
2022/10/13 00:05:39;;;;;;;14.30;9.63;;;;;;;;;;5045720;28;20513;-77
2022/10/13 00:08:05;;;;;;;10.17;9.20;;;;;;;;;;5026556;28;20438;-77
2022/10/13 00:10:31;;;;;;;13.13;8.67;;;;;;;;;;5045345;28;21032;-77
2022/10/13 00:12:57;;;;;;;11.00;9.80;;;;;;;;;;5063839;28;21069;-77
2022/10/13 00:15:24;;;;;;;11.87;10.20;;;;;;;;;;5044804;28;20955;-77
2022/10/13 00:17:50;;;;;;;13.30;10.20;;;;;;;;;;5026552;28;20438;-77
2022/10/13 00:20:16;;;;;;;11.10;10.00;;;;;;;;;;5043911;28;20437;-77
2022/10/13 00:22:42;;;;;;;12.03;10.80;;;;;;;;;;5036944;28;20575;-78
2022/10/13 00:25:08;;;;;;;12.33;10.80;;;;;;;;;;5031605;28;20513;-78
2022/10/13 00:27:34;;;;;;;14.80;11.40;;;;;;;;;;5035472;28;20523;-78
2022/10/13 00:30:00;;;;;;;18.20;11.27;;;;;;;;;;5029873;28;20449;-77
2022/10/13 00:32:26;;;;;;;13.40;11.70;;;;;;;;;;5034370;28;20970;-78
2022/10/13 00:34:52;;;;;;;14.43;11.73;;;;;;;;;;5020180;28;20991;-78
2022/10/13 00:37:18;;;;;;;12.37;11.13;;;;;;;;;;5043580;28;20438;-78
2022/10/13 00:39:44;;;;;;;14.57;11.97;;;;;;;;;;5045225;28;20505;-78
2022/10/13 00:42:13;;;;;;;18.13;13.20;;;;;;;;;;5031560;28;20418;-77
2022/10/13 00:44:58;;;;;;;20.00;11.47;;;;;;;;;;5044757;28;20402;-77
2022/10/13 00:47:25;;;;;;;17.10;11.90;;;;;;;;;;5032591;28;20799;-78
2022/10/13 00:49:51;;;;;;;16.03;13.20;;;;;;;;;;5045217;28;20409;-78
2022/10/13 00:52:19;;;;;;;21.63;14.50;;;;;;;;;;5032277;28;20504;-78
2022/10/13 00:54:46;;;;;;;18.93;13.37;;;;;;;;;;5045352;28;20409;-77
2022/10/13 00:57:12;;;;;;;18.67;13.93;;;;;;;;;;5034639;28;20690;-78
2022/10/13 00:59:39;;;;;;;16.03;12.93;;;;;;;;;;5047683;28;20405;-77
2022/10/13 01:02:05;;;;;;;19.47;13.27;;;;;;;;;;5030121;28;20429;-77
2022/10/13 01:04:33;;;;;;;21.53;12.27;;;;;;;;;;5046650;28;20881;-78
2022/10/13 01:07:00;;;;;;;18.10;13.90;;;;;;;;;;5042684;28;20469;-78
2022/10/13 01:09:33;;;;;;;15.27;13.03;;;;;;;;;;5046248;28;20437;-78
2022/10/13 01:12:02;;;;;;;14.77;13.00;;;;;;;;;;5041493;28;20426;-78
2022/10/13 01:14:34;;;;;;;19.30;14.30;;;;;;;;;;5046544;28;20542;-77
2022/10/13 01:17:00;;;;;;;25.53;13.57;;;;;;;;;;5043184;28;20499;-77
2022/10/13 01:19:45;;;;;;;20.37;13.20;;;;;;;;;;5026877;28;20426;-77
2022/10/13 01:22:41;;;;;;;16.33;12.40;;;;;;;;;;5043898;28;20434;-77
2022/10/13 01:25:06;;;;;;;19.43;14.37;;;;;;;;;;5005393;28;20443;-77
2022/10/13 01:27:48;;;;;;;15.10;11.90;;;;;;;;;;5031087;28;21162;-77
2022/10/13 01:30:15;;;;;;;16.80;12.67;;;;;;;;;;5044434;28;20496;-79
2022/10/13 01:32:43;;;;;;;17.43;11.73;;;;;;;;;;5033540;28;20779;-77
2022/10/13 01:35:09;;;;;;;16.20;12.20;;;;;;;;;;5028722;28;20524;-79
2022/10/13 01:37:35;;;;;;;20.07;13.23;;;;;;;;;;5032684;28;20445;-78
2022/10/13 01:40:09;;;;;;;15.17;11.83;;;;;;;;;;5044295;28;20437;-77
2022/10/13 01:42:41;;;;;;;18.27;12.67;;;;;;;;;;5019443;28;20803;-78
2022/10/13 01:45:09;;;;;;;16.57;12.10;;;;;;;;;;5039657;28;23006;-78
2022/10/13 01:47:36;;;;;;;15.03;12.20;;;;;;;;;;5032106;28;20532;-77
2022/10/13 01:50:04;;;;;;;15.37;11.53;;;;;;;;;;5044510;28;20421;-78
2022/10/13 01:52:32;;;;;;;16.77;11.37;;;;;;;;;;5030749;28;20469;-77
2022/10/13 01:55:04;;;;;;;17.03;10.70;;;;;;;;;;5044305;28;20410;-78
2022/10/13 01:57:31;;;;;;;15.20;11.40;;;;;;;;;;5017225;28;20471;-78
2022/10/13 02:00:02;;;;;;;16.70;12.00;;;;;;;;;;5044074;28;20405;-79
2022/10/13 02:02:33;;;;;;;17.00;12.80;;;;;;;;;;5030165;28;20432;-78
2022/10/13 02:05:16;;;;;;;16.30;12.97;;;;;;;;;;5044298;28;20500;-77
2022/10/13 02:07:53;;;;;;;15.33;12.43;;;;;;;;;;5031300;28;20562;-77
2022/10/13 02:10:34;;;;;;;12.93;11.53;;;;;;;;;;5011398;28;20461;-77
2022/10/13 02:13:04;;;;;;;15.73;12.23;;;;;;;;;;5033370;28;20534;-78
2022/10/13 02:15:36;;;;;;;19.00;12.20;;;;;;;;;;5028934;28;20940;-77
2022/10/13 02:18:03;;;;;;;16.03;12.10;;;;;;;;;;5029258;28;20461;-77
2022/10/13 02:20:30;;;;;;;17.50;13.37;;;;;;;;;;5043140;28;20697;-77
2022/10/13 02:23:00;;;;;;;18.07;12.03;;;;;;;;;;5033433;28;20448;-78
2022/10/13 02:25:26;;;;;;;15.20;12.17;;;;;;;;;;5023006;28;20442;-77
2022/10/13 02:27:53;;;;;;;12.70;11.40;;;;;;;;;;5032354;28;20449;-77
2022/10/13 02:30:23;;;;;;;15.80;12.10;;;;;;;;;;5038803;28;20445;-78
2022/10/13 02:32:49;;;;;;;17.47;12.70;;;;;;;;;;5042547;28;20495;-78
2022/10/13 02:35:14;;;;;;;15.57;12.90;;;;;;;;;;5041475;28;20419;-77
2022/10/13 02:37:40;;;;;;;14.17;12.63;;;;;;;;;;5034695;28;20440;-79
2022/10/13 02:40:07;;;;;;;16.27;13.13;;;;;;;;;;5042945;28;20546;-77
2022/10/13 02:42:33;;;;;;;18.23;13.03;;;;;;;;;;5042806;28;20441;-78
2022/10/13 02:44:58;;;;;;;13.43;12.07;;;;;;;;;;5039748;28;21748;-78
2022/10/13 02:47:25;;;;;;;17.87;13.90;;;;;;;;;;5027594;28;20466;-77
2022/10/13 02:49:50;;;;;;;15.20;12.00;;;;;;;;;;5045508;28;20446;-78
2022/10/13 02:52:16;;;;;;;19.90;13.27;;;;;;;;;;5041020;28;20973;-77
2022/10/13 02:54:42;;;;;;;14.83;11.37;;;;;;;;;;5045081;28;20410;-79
2022/10/13 02:57:08;;;;;;;18.00;12.83;;;;;;;;;;5042558;28;20543;-77
2022/10/13 02:59:34;;;;;;;20.97;13.93;;;;;;;;;;5033186;28;20928;-79
2022/10/13 03:02:00;;;;;;;14.57;11.80;;;;;;;;;;5040565;28;20803;-77
2022/10/13 03:04:26;;;;;;;20.17;13.90;;;;;;;;;;5044947;28;20414;-77
2022/10/13 03:06:52;;;;;;;17.70;12.10;;;;;;;;;;5038670;28;20483;-79
2022/10/13 03:09:18;;;;;;;13.87;12.20;;;;;;;;;;5024546;28;20497;-77
2022/10/13 03:11:44;;;;;;;17.37;12.50;;;;;;;;;;5042147;28;20794;-77
2022/10/13 03:14:10;;;;;;;18.10;13.57;;;;;;;;;;5023665;28;20462;-78
2022/10/13 03:16:36;;;;;;;16.97;12.30;;;;;;;;;;5042461;28;20476;-78
2022/10/13 03:19:02;;;;;;;18.20;12.47;;;;;;;;;;5024211;28;20480;-78
2022/10/13 03:21:28;;;;;;;16.47;12.87;;;;;;;;;;5041387;28;20477;-78
2022/10/13 03:23:54;;;;;;;18.43;13.53;;;;;;;;;;5023801;28;20968;-77
2022/10/13 03:26:20;;;;;;;15.23;11.57;;;;;;;;;;5042359;28;20465;-77
2022/10/13 03:28:50;;;;;;;13.17;11.60;;;;;;;;;;5023347;28;20648;-77
2022/10/13 03:31:16;;;;;;;15.57;12.57;;;;;;;;;;5042155;28;20430;-78
2022/10/13 03:33:43;;;;;;;14.93;12.77;;;;;;;;;;5023950;28;20715;-78
2022/10/13 03:36:10;;;;;;;16.97;11.97;;;;;;;;;;5042119;28;20506;-78
2022/10/13 03:38:36;;;;;;;14.50;12.87;;;;;;;;;;5023967;28;20434;-78
2022/10/13 03:41:09;;;;;;;23.63;15.40;;;;;;;;;;5035441;28;20446;-78
2022/10/13 03:43:35;;;;;;;14.23;12.03;;;;;;;;;;5030710;28;20442;-78
2022/10/13 03:46:02;;;;;;;15.40;11.20;;;;;;;;;;5037746;28;20524;-77
2022/10/13 03:48:28;;;;;;;15.03;13.43;;;;;;;;;;5034638;28;20422;-78
2022/10/13 03:50:54;;;;;;;14.43;11.60;;;;;;;;;;5030408;28;20726;-78
2022/10/13 03:53:20;;;;;;;16.80;13.03;;;;;;;;;;5037218;28;20895;-78
2022/10/13 03:55:54;;;;;;;17.80;12.47;;;;;;;;;;5031440;28;20429;-78
2022/10/13 03:58:20;;;;;;;13.50;10.67;;;;;;;;;;5036838;28;20429;-78
2022/10/13 04:00:47;;;;;;;12.43;11.13;;;;;;;;;;5026311;28;21018;-78
2022/10/13 04:03:13;;;;;;;15.67;12.13;;;;;;;;;;5029021;28;20434;-78
2022/10/13 04:05:39;;;;;;;12.00;10.63;;;;;;;;;;5045369;28;20441;-79
2022/10/13 04:08:05;;;;;;;18.83;12.70;;;;;;;;;;5034404;28;20461;-80
2022/10/13 04:10:31;;;;;;;15.23;12.00;;;;;;;;;;5045967;28;20414;-78
2022/10/13 04:12:57;;;;;;;16.17;11.97;;;;;;;;;;5032592;28;20464;-79
2022/10/13 04:15:23;;;;;;;12.67;11.30;;;;;;;;;;5045958;28;20417;-78
2022/10/13 04:17:49;;;;;;;14.17;12.50;;;;;;;;;;5032070;28;20422;-78
2022/10/13 04:20:15;;;;;;;16.57;12.53;;;;;;;;;;5047753;28;20410;-78
2022/10/13 04:22:41;;;;;;;15.20;11.93;;;;;;;;;;5027585;28;20530;-78
2022/10/13 04:25:08;;;;;;;12.30;10.77;;;;;;;;;;5027542;28;20505;-78
2022/10/13 04:27:37;;;;;;;14.30;11.50;;;;;;;;;;5040747;28;20587;-78
2022/10/13 04:30:03;;;;;;;11.37;10.17;;;;;;;;;;5027323;28;20469;-78
2022/10/13 04:32:29;;;;;;;17.27;12.13;;;;;;;;;;5025308;28;20909;-78
2022/10/13 04:34:55;;;;;;;14.30;11.40;;;;;;;;;;5027580;28;20454;-79
2022/10/13 04:37:22;;;;;;;15.70;11.90;;;;;;;;;;5036583;28;20448;-79
2022/10/13 04:39:47;;;;;;;13.27;11.87;;;;;;;;;;5027651;28;20833;-80
2022/10/13 04:42:13;;;;;;;14.20;11.03;;;;;;;;;;5039090;28;20632;-79
2022/10/13 04:44:39;;;;;;;15.40;12.30;;;;;;;;;;5031994;28;21296;-79
2022/10/13 04:47:05;;;;;;;14.50;11.70;;;;;;;;;;5026261;28;20829;-78
2022/10/13 04:49:31;;;;;;;15.03;13.17;;;;;;;;;;5031119;28;20430;-78
2022/10/13 04:51:57;;;;;;;16.07;13.40;;;;;;;;;;5030195;28;20512;-77
2022/10/13 04:54:24;;;;;;;19.23;15.17;;;;;;;;;;5025756;28;20841;-78
2022/10/13 04:56:50;;;;;;;19.13;14.20;;;;;;;;;;5038175;28;20438;-77
2022/10/13 04:59:16;;;;;;;17.37;14.40;;;;;;;;;;5035402;28;20427;-77
2022/10/13 05:01:42;;;;;;;19.93;13.40;;;;;;;;;;5029942;28;20854;-77
2022/10/13 05:04:09;;;;;;;18.00;13.20;;;;;;;;;;5029602;28;20834;-78
2022/10/13 05:06:36;;;;;;;21.13;14.30;;;;;;;;;;5022299;28;20509;-79
2022/10/13 05:09:02;;;;;;;14.43;12.93;;;;;;;;;;5030869;28;20976;-78
2022/10/13 05:11:28;;;;;;;19.40;14.53;;;;;;;;;;5044067;28;20473;-79
2022/10/13 05:13:55;;;;;;;18.07;14.23;;;;;;;;;;5025145;28;20527;-78
2022/10/13 05:16:21;;;;;;;22.90;17.23;;;;;;;;;;5042681;28;20453;-78
2022/10/13 05:18:48;;;;;;;15.33;12.23;;;;;;;;;;5034935;28;20780;-77
2022/10/13 05:21:15;;;;;;;17.93;11.77;;;;;;;;;;5031057;28;20543;-78
2022/10/13 05:23:41;;;;;;;15.53;11.97;;;;;;;;;;5034907;28;20787;-77
2022/10/13 05:26:09;;;;;;;12.47;10.77;;;;;;;;;;5025254;28;20472;-78
2022/10/13 05:28:35;;;;;;;13.23;11.47;;;;;;;;;;5034975;28;20526;-78
2022/10/13 05:31:11;;;;;;;12.97;10.40;;;;;;;;;;5043661;28;20421;-76
2022/10/13 05:33:37;;;;;;;10.87;9.87;;;;;;;;;;5023572;28;20471;-77
2022/10/13 05:36:04;;;;;;;13.03;9.83;;;;;;;;;;5060919;28;20462;-77
2022/10/13 05:38:30;;;;;;;14.20;11.10;;;;;;;;;;5033381;28;20433;-78
2022/10/13 05:41:01;;;;;;;13.70;10.97;;;;;;;;;;5026224;28;20480;-78
2022/10/13 05:43:27;;;;;;;12.63;10.40;;;;;;;;;;5030445;28;20454;-78
2022/10/13 05:45:53;;;;;;;11.33;10.03;;;;;;;;;;5043954;28;20421;-78
2022/10/13 05:48:19;;;;;;;12.80;9.50;;;;;;;;;;5031427;28;20458;-78
2022/10/13 05:50:44;;;;;;;17.07;9.93;;;;;;;;;;5067541;28;20443;-79
2022/10/13 05:53:10;;;;;;;12.80;10.60;;;;;;;;;;5017601;28;20513;-78
2022/10/13 05:55:38;;;;;;;11.35;9.45;;;;;;;;;;4345705;28;10000781;-78
2022/10/13 05:58:04;;;;;;;12.73;10.87;;;;;;;;;;5024560;28;20195;-79
2022/10/13 06:00:30;;;;;;;17.13;10.50;;;;;;;;;;5022699;28;20399;-79
2022/10/13 06:03:06;;;;;;;11.33;9.80;;;;;;;;;;5026825;28;20924;-78
2022/10/13 06:05:33;;;;;;;11.00;9.60;;;;;;;;;;5022927;28;20406;-78
2022/10/13 06:07:59;;;;;;;16.50;10.47;;;;;;;;;;5026795;28;20469;-78
2022/10/13 06:10:25;;;;;;;14.03;9.23;;;;;;;;;;5026117;28;20468;-79
2022/10/13 06:12:51;;;;;;;9.93;9.07;;;;;;;;;;5027272;28;20465;-77
2022/10/13 06:15:17;;;;;;;12.20;9.87;;;;;;;;;;5021406;28;20774;-80
2022/10/13 06:17:43;;;;;;;13.73;9.80;;;;;;;;;;5029443;28;20447;-78
2022/10/13 06:20:10;;;;;;;11.30;9.63;;;;;;;;;;5070956;28;20958;-79
2022/10/13 06:22:36;;;;;;;13.70;9.63;;;;;;;;;;5025319;28;20461;-79
2022/10/13 06:25:03;;;;;;;13.17;9.93;;;;;;;;;;5021955;28;20438;-78
2022/10/13 06:27:30;;;;;;;11.60;9.67;;;;;;;;;;5029630;28;20937;-80
2022/10/13 06:29:56;;;;;;;13.07;9.50;;;;;;;;;;5021884;28;20464;-78
2022/10/13 06:32:22;;;;;;;11.83;9.40;;;;;;;;;;5023854;28;20508;-79
2022/10/13 06:34:48;;;;;;;20.27;11.17;;;;;;;;;;5022969;28;20443;-79
2022/10/13 06:37:14;;;;;;;12.37;10.00;;;;;;;;;;5028295;28;20453;-79
2022/10/13 06:39:40;;;;;;;20.60;10.10;;;;;;;;;;5019507;28;20442;-78
2022/10/13 06:42:06;;;;;;;12.03;9.33;;;;;;;;;;5031559;28;20446;-79
2022/10/13 06:44:32;;;;;;;13.03;9.80;;;;;;;;;;5020479;28;20442;-79
2022/10/13 06:46:59;;;;;;;9.90;9.00;;;;;;;;;;5034394;28;20531;-79
2022/10/13 06:49:25;;;;;;;11.77;10.77;;;;;;;;;;5023360;28;20699;-79
2022/10/13 06:51:51;;;;;;;11.37;8.60;;;;;;;;;;5038444;28;20445;-80
2022/10/13 06:54:17;;;;;;;15.57;9.70;;;;;;;;;;5026808;28;20446;-79
2022/10/13 06:56:43;;;;;;;11.80;10.60;;;;;;;;;;5024423;28;20443;-80
2022/10/13 06:59:09;;;;;;;15.10;9.20;;;;;;;;;;5026179;28;20533;-79
2022/10/13 07:01:35;;;;;;;11.47;9.57;;;;;;;;;;5031560;28;20454;-80
2022/10/13 07:04:01;;;;;;;13.17;9.77;;;;;;;;;;5023091;28;20454;-80
2022/10/13 07:06:27;;;;;;;9.77;8.90;;;;;;;;;;5024093;28;20484;-80
2022/10/13 07:08:53;;;;;;;11.00;9.37;;;;;;;;;;5029006;28;20933;-78
2022/10/13 07:11:19;;;;;;;9.63;8.50;;;;;;;;;;5026832;28;20445;-79
2022/10/13 07:13:45;;;;;;;15.80;9.97;;;;;;;;;;5025392;28;20778;-79
2022/10/13 07:16:11;;;;;;;16.57;7.83;;;;;;;;;;5026720;28;20510;-78
2022/10/13 07:18:37;;;;;;;10.83;9.60;;;;;;;;;;5026711;28;20986;-80
2022/10/13 07:21:05;;;;;;;13.07;9.60;;;;;;;;;;5029447;28;20415;-79
2022/10/13 07:23:31;;;;;;;11.13;9.37;;;;;;;;;;5025148;28;20454;-81
2022/10/13 07:25:57;;;;;;;10.60;8.60;;;;;;;;;;5059222;28;20999;-80
2022/10/13 07:28:24;;;;;;;10.87;8.60;;;;;;;;;;5025368;28;20548;-79
2022/10/13 07:30:50;;;;;;;9.03;8.23;;;;;;;;;;5016439;28;20932;-82
2022/10/13 07:33:16;;;;;;;9.30;8.40;;;;;;;;;;5025687;28;20463;-80
2022/10/13 07:35:42;;;;;;;9.90;7.30;;;;;;;;;;5026401;28;21243;-80
2022/10/13 07:38:08;;;;;;;11.13;9.40;;;;;;;;;;5030502;28;20450;-79
2022/10/13 07:40:35;;;;;;;12.33;10.30;;;;;;;;;;5048450;28;20432;-78
2022/10/13 07:43:01;;;;;;;10.60;8.73;;;;;;;;;;5029582;28;20453;-77
2022/10/13 07:45:27;;;;;;;11.27;7.97;;;;;;;;;;5046182;28;20436;-81
2022/10/13 07:47:53;;;;;;;9.67;8.73;;;;;;;;;;5042350;28;20473;-78
2022/10/13 07:50:19;;;;;;;9.50;8.37;;;;;;;;;;5062878;28;20509;-80
2022/10/13 07:52:45;;;;;;;9.17;8.27;;;;;;;;;;5045676;28;20437;-79
2022/10/13 07:55:11;;;;;;;13.20;9.53;;;;;;;;;;5026921;28;20434;-79
2022/10/13 07:57:37;;;;;;;12.37;9.30;;;;;;;;;;5030489;28;20489;-79
2022/10/13 08:00:05;;;;;;;11.20;9.27;;;;;;;;;;5027448;28;20465;-80
2022/10/13 08:02:31;;;;;;;13.70;12.50;;;;;;;;;;5031639;28;20442;-80
2022/10/13 08:04:57;;;;;;;10.37;8.80;;;;;;;;;;5025054;28;20557;-80
2022/10/13 08:07:23;;;;;;;10.23;9.33;;;;;;;;;;5036388;28;21153;-80
2022/10/13 08:09:49;;;;;;;10.60;7.97;;;;;;;;;;5058129;28;20990;-79
2022/10/13 08:12:15;;;;;;;15.43;8.93;;;;;;;;;;5044549;28;20445;-80
2022/10/13 08:14:41;;;;;;;11.83;8.87;;;;;;;;;;5026190;28;20461;-79
2022/10/13 08:17:07;;;;;;;11.73;9.00;;;;;;;;;;4686948;28;10000670;-79
2022/10/13 08:19:33;;;;;;;11.37;10.03;;;;;;;;;;5029188;28;20298;-78
2022/10/13 08:21:59;;;;;;;8.93;8.13;;;;;;;;;;5028155;28;20443;-79
2022/10/13 08:24:26;;;;;;;9.67;7.80;;;;;;;;;;5023998;28;20481;-79
2022/10/13 08:26:52;;;;;;;8.47;7.60;;;;;;;;;;5027852;28;20493;-80
2022/10/13 08:29:18;;;;;;;8.77;7.77;;;;;;;;;;5030053;28;20427;-80
2022/10/13 08:31:44;;;;;;;9.63;8.73;;;;;;;;;;5026477;28;20486;-79
2022/10/13 08:34:10;;;;;;;9.33;7.93;;;;;;;;;;5033192;28;20824;-78
2022/10/13 08:36:36;;;;;;;12.63;8.63;;;;;;;;;;5028405;28;20445;-78
2022/10/13 08:39:02;;;;;;;14.07;9.50;;;;;;;;;;5028208;28;20498;-78
2022/10/13 08:41:32;;;;;;;12.03;9.27;;;;;;;;;;5029370;28;20458;-77
2022/10/13 08:44:03;;;;;;;11.23;8.17;;;;;;;;;;5027652;28;21122;-78
2022/10/13 08:46:37;;;;;;;15.80;9.70;;;;;;;;;;5012208;28;20466;-79
2022/10/13 08:49:05;;;;;;;14.17;9.43;;;;;;;;;;5023658;28;20445;-77
2022/10/13 08:51:31;;;;;;;10.57;8.90;;;;;;;;;;5023725;28;20513;-79
2022/10/13 08:53:58;;;;;;;10.20;8.80;;;;;;;;;;5021336;28;20703;-79
2022/10/13 08:56:26;;;;;;;13.40;10.03;;;;;;;;;;5022684;28;20509;-78
2022/10/13 08:58:55;;;;;;;17.07;9.07;;;;;;;;;;5033008;28;20481;-79
2022/10/13 09:01:27;;;;;;;9.83;8.20;;;;;;;;;;5026635;28;20426;-78
2022/10/13 09:03:53;;;;;;;9.47;8.40;;;;;;;;;;5025489;28;20430;-80
2022/10/13 09:06:27;;;;;;;11.50;8.97;;;;;;;;;;5022185;28;20507;-81
2022/10/13 09:08:55;;;;;;;9.87;9.00;;;;;;;;;;5025207;28;20464;-79
2022/10/13 09:11:21;;;;;;;8.17;7.43;;;;;;;;;;5022436;28;20411;-80
2022/10/13 09:13:47;;;;;;;8.83;7.97;;;;;;;;;;5026583;28;20507;-79
2022/10/13 09:16:14;;;;;;;7.57;6.87;;;;;;;;;;5029026;28;20433;-79
2022/10/13 09:18:40;;;;;;;8.53;7.70;;;;;;;;;;5023523;28;20478;-79
2022/10/13 09:21:23;;;;;;;10.30;8.27;;;;;;;;;;5024065;28;20423;-79
2022/10/13 09:23:50;;;;;;;9.83;8.90;;;;;;;;;;5032746;28;20433;-76
2022/10/13 09:26:21;;;;;;;8.97;8.07;;;;;;;;;;5020495;28;20441;-77
2022/10/13 09:28:47;;;;;;;9.60;8.50;;;;;;;;;;5023919;28;20718;-78
2022/10/13 09:31:16;;;;;;;10.43;8.37;;;;;;;;;;5023522;28;20493;-77
2022/10/13 09:33:42;;;;;;;9.40;8.00;;;;;;;;;;5022632;28;20700;-76
2022/10/13 09:36:10;;;;;;;9.13;8.00;;;;;;;;;;5021919;28;21171;-77
2022/10/13 09:38:36;;;;;;;7.97;7.17;;;;;;;;;;5022650;28;20976;-77
2022/10/13 09:41:05;;;;;;;7.97;6.23;;;;;;;;;;5023427;28;20453;-77
2022/10/13 09:43:41;;;;;;;8.30;7.17;;;;;;;;;;5026526;28;20453;-77
2022/10/13 09:46:12;;;;;;;10.37;7.23;;;;;;;;;;5023405;28;20418;-78
2022/10/13 09:48:41;;;;;;;7.87;7.17;;;;;;;;;;5027487;28;20590;-76
2022/10/13 09:51:27;;;;;;;8.43;7.60;;;;;;;;;;5026041;28;20419;-78
2022/10/13 09:53:53;;;;;;;8.13;7.33;;;;;;;;;;5019897;28;20921;-77
2022/10/13 09:56:23;;;;;;;7.10;6.60;;;;;;;;;;5025318;28;20464;-78
2022/10/13 09:59:01;;;;;;;7.87;7.33;;;;;;;;;;5029653;28;20430;-78
2022/10/13 10:01:29;;;;;;;9.13;8.23;;;;;;;;;;5025680;28;20445;-80
2022/10/13 10:03:57;;;;;;;7.23;6.83;;;;;;;;;;5030027;28;20422;-79
2022/10/13 10:06:23;;;;;;;7.90;7.23;;;;;;;;;;5021400;28;20980;-78
2022/10/13 10:08:50;;;;;;;7.97;7.37;;;;;;;;;;5023304;28;20445;-79
2022/10/13 10:11:33;;;;;;;9.63;8.67;;;;;;;;;;5024460;28;20410;-80
2022/10/13 10:14:02;;;;;;;7.73;7.07;;;;;;;;;;5026049;28;20463;-79
2022/10/13 10:16:31;;;;;;;7.63;6.97;;;;;;;;;;5028428;28;20450;-77
2022/10/13 10:19:18;;;;;;;7.63;6.80;;;;;;;;;;5027574;28;20883;-79
2022/10/13 10:21:47;;;;;;;9.37;7.60;;;;;;;;;;5017084;28;20873;-78
2022/10/13 10:24:26;;;;;;;7.20;6.57;;;;;;;;;;5027603;28;20501;-79
2022/10/13 10:26:52;;;;;;;9.20;8.30;;;;;;;;;;5027264;28;20466;-80
2022/10/13 10:29:37;;;;;;;7.50;6.80;;;;;;;;;;5027872;28;20452;-78
2022/10/13 10:32:03;;;;;;;7.73;7.10;;;;;;;;;;5013310;28;20905;-78
2022/10/13 10:34:41;;;;;;;8.40;7.70;;;;;;;;;;5031480;28;20903;-78
2022/10/13 10:37:10;;;;;;;8.43;7.50;;;;;;;;;;5029897;28;20750;-80
2022/10/13 10:39:40;;;;;;;8.37;7.10;;;;;;;;;;5033136;28;20429;-78
2022/10/13 10:42:17;;;;;;;10.23;7.47;;;;;;;;;;5027794;28;20430;-79
2022/10/13 10:44:44;;;;;;;7.83;6.90;;;;;;;;;;5020254;28;20701;-82
2022/10/13 10:47:24;;;;;;;8.97;8.07;;;;;;;;;;5060634;28;20501;-79
2022/10/13 10:49:53;;;;;;;7.17;6.50;;;;;;;;;;5022968;28;20434;-79
2022/10/13 10:52:23;;;;;;;7.03;6.37;;;;;;;;;;5043118;28;20438;-80
2022/10/13 10:54:53;;;;;;;7.37;6.70;;;;;;;;;;5034139;28;20469;-79
2022/10/13 10:57:24;;;;;;;11.20;10.17;;;;;;;;;;5029034;28;20783;-81
2022/10/13 10:59:49;;;;;;;7.03;6.53;;;;;;;;;;5023565;28;20833;-79
2022/10/13 11:02:34;;;;;;;10.93;6.70;;;;;;;;;;5033711;28;20429;-81
2022/10/13 11:05:00;;;;;;;7.80;7.10;;;;;;;;;;5030354;28;20438;-80
2022/10/13 11:07:29;;;;;;;7.50;6.80;;;;;;;;;;5030742;28;20835;-80
2022/10/13 11:09:56;;;;;;;7.33;6.87;;;;;;;;;;5066700;28;20434;-80
2022/10/13 11:12:22;;;;;;;8.63;7.93;;;;;;;;;;5060198;28;20804;-78
2022/10/13 11:15:01;;;;;;;7.93;7.20;;;;;;;;;;5032734;28;20453;-81
2022/10/13 11:17:27;;;;;;;9.33;8.50;;;;;;;;;;5014682;28;20989;-79
2022/10/13 11:19:53;;;;;;;9.67;8.67;;;;;;;;;;5033717;28;20442;-81
2022/10/13 11:22:23;;;;;;;9.60;8.70;;;;;;;;;;5028222;28;20442;-79
2022/10/13 11:24:54;;;;;;;11.30;7.50;;;;;;;;;;5032818;28;20430;-80
2022/10/13 11:27:28;;;;;;;8.20;7.60;;;;;;;;;;5028159;28;20476;-80
2022/10/13 11:29:56;;;;;;;9.93;8.17;;;;;;;;;;5033638;28;20473;-79
2022/10/13 11:32:25;;;;;;;12.90;8.47;;;;;;;;;;5028402;28;20521;-76
2022/10/13 11:35:01;;;;;;;9.60;7.87;;;;;;;;;;4675601;28;10000562;-78
2022/10/13 11:37:31;;;;;;;8.40;6.70;;;;;;;;;;5030154;28;20913;-82
2022/10/13 11:40:16;;;;;;;8.93;8.23;;;;;;;;;;5019877;28;20457;-79
2022/10/13 11:42:42;;;;;;;7.53;6.77;;;;;;;;;;5030551;28;20983;-78
2022/10/13 11:45:27;;;;;;;8.23;7.40;;;;;;;;;;5019612;28;20500;-80
2022/10/13 11:47:53;;;;;;;13.80;6.03;;;;;;;;;;5024583;28;20557;-79
2022/10/13 11:50:25;;;;;;;10.97;8.03;;;;;;;;;;5020637;28;20704;-80
2022/10/13 11:53:06;;;;;;;7.73;6.80;;;;;;;;;;5025638;28;20528;-82
2022/10/13 11:55:43;;;;;;;7.70;7.10;;;;;;;;;;5018955;28;20456;-81
2022/10/13 11:58:14;;;;;;;11.77;7.97;;;;;;;;;;5027650;28;20529;-80
2022/10/13 12:00:49;;;;;;;8.43;7.20;;;;;;;;;;5021003;28;20430;-79
2022/10/13 12:03:31;;;;;;;7.90;7.00;;;;;;;;;;5016605;28;20442;-80
2022/10/13 12:06:03;;;;;;;9.10;6.87;;;;;;;;;;5017356;28;20532;-80
2022/10/13 12:08:31;;;;;;;7.97;7.17;;;;;;;;;;5028435;28;20463;-81
2022/10/13 12:11:00;;;;;;;10.17;8.27;;;;;;;;;;5019620;28;20445;-80
2022/10/13 12:13:28;;;;;;;9.30;8.23;;;;;;;;;;5025312;28;20480;-80
2022/10/13 12:16:01;;;;;;;8.97;8.07;;;;;;;;;;5022130;28;20455;-80
2022/10/13 12:18:34;;;;;;;10.17;9.20;;;;;;;;;;5038459;28;20847;-78
2022/10/13 12:21:11;;;;;;;11.20;8.83;;;;;;;;;;5020243;28;20951;-80
2022/10/13 12:23:38;;;;;;;10.63;9.57;;;;;;;;;;5017189;28;20446;-78
2022/10/13 12:26:04;;;;;;;10.73;9.73;;;;;;;;;;5024688;28;20449;-80
2022/10/13 12:28:43;;;;;;;11.33;10.23;;;;;;;;;;5023567;28;20486;-80
2022/10/13 12:31:16;;;;;;;14.20;11.33;;;;;;;;;;5016186;28;20445;-78
2022/10/13 12:33:42;;;;;;;11.77;10.10;;;;;;;;;;5021205;28;20537;-78
2022/10/13 12:36:18;;;;;;;12.40;10.93;;;;;;;;;;5023141;28;20933;-78
2022/10/13 12:38:48;;;;;;;13.57;10.70;;;;;;;;;;5019159;28;20500;-78
2022/10/13 12:41:17;;;;;;;8.13;7.40;;;;;;;;;;5015186;28;20481;-79
2022/10/13 12:43:43;;;;;;;8.40;7.70;;;;;;;;;;5030633;28;20446;-79
2022/10/13 12:46:09;;;;;;;9.77;7.70;;;;;;;;;;5026981;28;20431;-79
2022/10/13 12:48:36;;;;;;;7.70;5.90;;;;;;;;;;5033641;28;20442;-79
2022/10/13 12:51:14;;;;;;;7.63;7.00;;;;;;;;;;5024383;28;20426;-78
2022/10/13 12:53:40;;;;;;;6.27;5.97;;;;;;;;;;5036033;28;20537;-79
2022/10/13 12:56:07;;;;;;;7.43;6.20;;;;;;;;;;5023749;28;20524;-77
2022/10/13 12:58:34;;;;;;;8.27;7.53;;;;;;;;;;5028891;28;20866;-78
2022/10/13 13:01:07;;;;;;;8.33;7.53;;;;;;;;;;5024938;28;20457;-79
2022/10/13 13:03:36;;;;;;;6.87;6.27;;;;;;;;;;5024598;28;21050;-80
2022/10/13 13:06:09;;;;;;;10.10;7.57;;;;;;;;;;5029648;28;20450;-78
2022/10/13 13:08:35;;;;;;;6.93;6.43;;;;;;;;;;5032162;28;20519;-79
2022/10/13 13:11:03;;;;;;;6.60;6.00;;;;;;;;;;5025398;28;20463;-78
2022/10/13 13:13:29;;;;;;;5.73;5.37;;;;;;;;;;5027915;28;20473;-81
2022/10/13 13:16:15;;;;;;;5.20;4.80;;;;;;;;;;5022963;28;20488;-80
2022/10/13 13:18:51;;;;;;;5.27;4.87;;;;;;;;;;5030955;28;20492;-79
2022/10/13 13:21:18;;;;;;;7.00;6.40;;;;;;;;;;5021612;28;20536;-80
2022/10/13 13:23:46;;;;;;;9.23;5.43;;;;;;;;;;5031815;28;20819;-80
2022/10/13 13:26:13;;;;;;;6.57;5.87;;;;;;;;;;5022983;28;20438;-79
2022/10/13 13:28:57;;;;;;;6.20;5.80;;;;;;;;;;5035368;28;20520;-80
2022/10/13 13:31:24;;;;;;;6.60;5.50;;;;;;;;;;5020457;28;20469;-79
2022/10/13 13:33:50;;;;;;;5.20;4.80;;;;;;;;;;5027678;28;20685;-79
2022/10/13 13:36:20;;;;;;;6.50;6.00;;;;;;;;;;5022754;28;20443;-78
2022/10/13 13:38:49;;;;;;;5.20;5.00;;;;;;;;;;5022450;28;20528;-78
2022/10/13 13:41:16;;;;;;;5.67;5.30;;;;;;;;;;5022117;28;20463;-78
2022/10/13 13:43:42;;;;;;;4.93;4.73;;;;;;;;;;5025437;28;20470;-78
2022/10/13 13:46:15;;;;;;;6.13;5.37;;;;;;;;;;5022380;28;20508;-79
2022/10/13 13:48:42;;;;;;;4.77;4.33;;;;;;;;;;5026934;28;20879;-80
2022/10/13 13:51:08;;;;;;;4.63;4.33;;;;;;;;;;5021137;28;20454;-78
2022/10/13 13:53:34;;;;;;;4.17;4.00;;;;;;;;;;5035030;28;20477;-78
2022/10/13 13:56:00;;;;;;;5.00;4.70;;;;;;;;;;5020140;28;20810;-80
2022/10/13 13:58:26;;;;;;;5.17;4.77;;;;;;;;;;5032066;28;20468;-77
2022/10/13 14:00:52;;;;;;;5.30;4.50;;;;;;;;;;5025143;28;20442;-77
2022/10/13 14:03:18;;;;;;;4.60;4.40;;;;;;;;;;5033306;28;20487;-76
2022/10/13 14:05:44;;;;;;;5.23;5.03;;;;;;;;;;5056539;28;20442;-76
2022/10/13 14:08:10;;;;;;;5.37;4.67;;;;;;;;;;5036297;28;20492;-77
2022/10/13 14:10:39;;;;;;;9.40;4.73;;;;;;;;;;5024506;28;20442;-78
2022/10/13 14:13:05;;;;;;;8.43;7.07;;;;;;;;;;5043001;28;21068;-78
2022/10/13 14:15:31;;;;;;;5.73;5.33;;;;;;;;;;5033091;28;20442;-79
2022/10/13 14:17:57;;;;;;;6.20;5.63;;;;;;;;;;5029544;28;20442;-78
2022/10/13 14:20:23;;;;;;;6.70;6.10;;;;;;;;;;5032456;28;20878;-75
2022/10/13 14:22:49;;;;;;;9.60;7.20;;;;;;;;;;5025293;28;20495;-77
2022/10/13 14:25:15;;;;;;;6.57;6.07;;;;;;;;;;5041873;28;20441;-78
2022/10/13 14:27:41;;;;;;;7.20;6.07;;;;;;;;;;5025969;28;20497;-79
2022/10/13 14:30:08;;;;;;;5.33;4.80;;;;;;;;;;5029813;28;20478;-78
2022/10/13 14:32:34;;;;;;;6.53;6.10;;;;;;;;;;5074932;28;20409;-79
2022/10/13 14:35:00;;;;;;;7.00;6.40;;;;;;;;;;5028218;28;20480;-78